Time;durP1;ratioP1;P1;durP2;ratioP2;P2;SDS_P1;SDS_P2;PMS_P1;PMS_P2;Temp;Humidity;BMP_temperature;BMP_pressure;BME280_temperature;BME280_humidity;BME280_pressure;Samples;Min_cycle;Max_cycle;Signal;HPM_P1;HPM_P2
2021/12/11 09:59:57;;;;;;;1.58;1.48;;;;;;;10.86;55.10;101185.19;6320913;27;1999193;-75
2021/12/11 10:03:04;;;;;;;1.65;1.40;;;;;;;8.97;64.89;101190.75;6358363;28;20182;-75
2021/12/11 10:06:26;;;;;;;2.60;1.50;;;;;;;8.38;68.78;101201.09;6358260;28;20235;-75
2021/12/11 10:13:40;;;;;;;0.63;0.63;;;;;;;23.15;32.66;101148.59;6385267;27;20583;-51
2021/12/11 10:16:49;;;;;;;2.95;0.77;;;;;;;23.04;32.85;101150.66;6385673;28;20182;-52
2021/12/11 10:19:56;;;;;;;0.60;0.60;;;;;;;23.57;32.40;101145.16;6384212;28;20403;-50
2021/12/11 10:24:41;;;;;;;1.38;1.38;;;;;;;10.02;59.04;101225.72;6335960;27;20838;-79
2021/12/11 10:27:46;;;;;;;1.38;1.38;;;;;;;8.48;69.47;101224.22;6336040;28;20183;-78
2021/12/11 10:30:53;;;;;;;2.67;1.60;;;;;;;7.27;75.46;101228.53;6336182;28;20182;-78
2021/12/11 10:34:00;;;;;;;1.65;1.58;;;;;;;6.85;78.28;101222.84;6283131;28;20246;-78
2021/12/11 10:37:08;;;;;;;1.55;1.55;;;;;;;7.01;79.13;101230.81;6285981;28;20211;-78
2021/12/11 10:40:22;;;;;;;1.60;1.50;;;;;;;7.28;78.00;101241.06;6281787;28;66349;-78
2021/12/11 10:43:31;;;;;;;1.50;1.50;;;;;;;7.55;77.56;101232.28;6284646;28;20291;-79
2021/12/11 10:46:39;;;;;;;2.65;1.60;;;;;;;7.26;78.23;101240.44;6286349;28;20547;-78
2021/12/11 10:49:45;;;;;;;1.88;1.85;;;;;;;7.30;78.64;101244.44;6286781;28;20259;-79
2021/12/11 10:52:49;;;;;;;1.83;1.80;;;;;;;7.20;79.24;101233.00;6285415;28;20482;-78
2021/12/11 10:55:57;;;;;;;1.90;1.80;;;;;;;7.11;79.60;101236.84;6286465;28;20377;-79
2021/12/11 10:59:07;;;;;;;1.83;1.73;;;;;;;7.09;79.80;101241.59;6286777;28;20564;-79
2021/12/11 11:02:15;;;;;;;1.70;1.70;;;;;;;6.99;79.54;101257.28;6287597;28;20281;-79
2021/12/11 11:05:23;;;;;;;1.53;1.53;;;;;;;6.87;79.86;101247.91;6285100;28;20239;-79
2021/12/11 11:08:29;;;;;;;1.57;1.50;;;;;;;6.90;80.05;101258.41;6286786;28;20218;-78
2021/12/11 11:12:41;;;;;;;2.07;1.63;;;;;;;3.93;79.85;101258.06;6311797;28;21172;-77
2021/12/11 11:15:46;;;;;;;1.70;1.70;;;;;;;4.00;80.00;101261.72;6312921;28;20366;-78
2021/12/11 11:18:50;;;;;;;1.80;1.80;;;;;;;4.14;79.11;101260.88;6312570;28;20191;-77
2021/12/11 11:21:58;;;;;;;2.10;2.00;;;;;;;4.05;79.57;101266.56;6311614;28;20211;-78
2021/12/11 11:25:07;;;;;;;1.70;1.70;;;;;;;4.01;79.23;101271.50;6311810;28;20187;-77
2021/12/11 11:28:18;;;;;;;2.20;2.10;;;;;;;4.06;79.99;101273.69;6310174;28;20247;-77
2021/12/11 11:31:26;;;;;;;1.90;1.90;;;;;;;4.02;80.21;101278.63;6309668;28;20259;-77
2021/12/11 11:34:32;;;;;;;2.20;2.10;;;;;;;3.99;80.36;101272.72;6308191;28;20266;-78
2021/12/11 11:39:57;;;;;;;2.00;2.00;;;;;;;3.06;80.00;101269.09;6287018;27;20789;-78
2021/12/11 11:43:02;;;;;;;1.90;1.90;;;;;;;2.92;80.68;101272.63;6287025;28;20217;-77
2021/12/11 11:46:07;;;;;;;1.90;1.90;;;;;;;2.87;81.20;101264.19;6286275;28;20188;-77
2021/12/11 11:49:13;;;;;;;2.03;1.90;;;;;;;2.85;81.68;101274.41;6294021;28;20419;-77
2021/12/11 11:52:20;;;;;;;1.80;1.80;;;;;;;2.80;82.03;101271.38;6310113;28;20195;-76
2021/12/11 11:55:30;;;;;;;2.37;2.20;;;;;;;2.85;81.95;101274.41;6308643;28;20456;-77
2021/12/11 11:58:35;;;;;;;2.10;2.00;;;;;;;2.82;81.92;101282.88;6311545;28;20210;-78
2021/12/11 12:01:42;;;;;;;2.60;2.50;;;;;;;2.75;82.37;101287.34;6311751;28;20190;-78
2021/12/11 12:04:51;;;;;;;2.10;2.00;;;;;;;2.81;81.25;101303.72;6313986;28;20187;-78
2021/12/11 12:07:57;;;;;;;2.13;2.07;;;;;;;2.93;81.33;101301.47;6311234;28;20191;-79
2021/12/11 12:11:03;;;;;;;2.20;2.20;;;;;;;2.80;81.89;101301.22;6309490;28;20277;-78
2021/12/11 12:14:10;;;;;;;2.53;2.43;;;;;;;2.80;81.64;101307.50;6308245;28;20210;-78
2021/12/11 12:17:19;;;;;;;2.83;2.40;;;;;;;2.74;82.82;101312.78;6310843;28;20184;-78
2021/12/11 12:20:26;;;;;;;2.13;2.13;;;;;;;2.94;81.24;101308.53;6311755;28;20196;-79
2021/12/11 12:23:33;;;;;;;2.40;2.40;;;;;;;2.98;80.83;101315.31;6311560;28;20232;-79
2021/12/11 12:26:40;;;;;;;2.67;2.57;;;;;;;3.09;80.30;101314.84;6310859;28;20187;-78
2021/12/11 12:29:46;;;;;;;2.27;2.17;;;;;;;3.10;80.32;101313.84;6308986;28;20291;-78
2021/12/11 12:32:54;;;;;;;2.37;2.27;;;;;;;2.95;81.23;101321.09;6310403;28;20251;-79
2021/12/11 12:35:59;;;;;;;3.27;2.73;;;;;;;2.86;80.92;101333.00;6309550;28;20503;-78
2021/12/11 12:39:07;;;;;;;2.37;2.30;;;;;;;2.86;81.54;101341.16;6310419;28;20294;-78
2021/12/11 12:42:22;;;;;;;2.50;2.40;;;;;;;2.90;81.14;101339.78;6309600;28;20185;-78
2021/12/11 12:45:31;;;;;;;3.37;2.77;;;;;;;2.72;81.98;101347.38;6308120;28;20528;-78
2021/12/11 12:48:36;;;;;;;2.47;2.40;;;;;;;2.59;82.20;101352.53;6306309;28;20386;-78
2021/12/11 12:51:41;;;;;;;2.37;2.30;;;;;;;2.61;82.49;101361.31;6291297;28;20194;-78
2021/12/11 12:54:48;;;;;;;3.37;2.53;;;;;;;2.62;82.78;101363.03;6291558;28;20194;-78
2021/12/11 12:57:57;;;;;;;2.20;2.10;;;;;;;2.82;81.39;101359.69;6292955;28;20186;-78
2021/12/11 13:01:07;;;;;;;3.97;2.60;;;;;;;2.56;82.69;101366.44;6291465;28;20540;-78
2021/12/11 13:04:17;;;;;;;2.87;2.67;;;;;;;2.49;83.25;101379.03;6292284;28;20251;-77
2021/12/11 13:07:21;;;;;;;2.47;2.37;;;;;;;2.51;83.31;101366.97;6291026;28;20188;-77
2021/12/11 13:10:29;;;;;;;2.90;2.80;;;;;;;2.51;82.82;101360.72;6292285;28;20253;-78
2021/12/11 13:13:38;;;;;;;2.00;2.00;;;;;;;2.48;82.57;101355.63;6291957;28;20187;-78
2021/12/11 13:16:49;;;;;;;2.40;2.30;;;;;;;2.47;83.41;101375.66;6291897;28;20237;-78
2021/12/11 13:19:57;;;;;;;2.77;2.33;;;;;;;2.50;82.99;101386.13;6292431;28;20221;-78
2021/12/11 13:23:04;;;;;;;5.10;2.80;;;;;;;2.48;83.88;101393.59;6275245;28;20235;-78
2021/12/11 13:26:12;;;;;;;2.63;2.40;;;;;;;2.54;83.45;101384.75;6267459;28;20189;-78
2021/12/11 13:29:21;;;;;;;2.80;2.57;;;;;;;2.43;83.78;101379.72;6267060;28;20191;-78
2021/12/11 13:32:28;;;;;;;2.60;2.60;;;;;;;2.53;83.73;101374.94;6266816;28;20188;-78
2021/12/11 13:35:37;;;;;;;2.53;2.50;;;;;;;2.51;84.08;101382.41;6266766;28;20217;-78
2021/12/11 13:38:43;;;;;;;2.80;2.70;;;;;;;2.46;83.95;101382.09;6266630;28;20274;-78
2021/12/11 13:41:50;;;;;;;3.83;2.40;;;;;;;2.27;84.81;101386.91;6266928;28;20224;-78
2021/12/11 13:44:59;;;;;;;3.00;2.77;;;;;;;2.45;84.38;101394.78;6265858;28;20185;-78
2021/12/11 13:48:05;;;;;;;3.50;2.73;;;;;;;2.40;84.33;101407.19;6265752;28;20220;-78
2021/12/11 13:51:15;;;;;;;3.20;2.97;;;;;;;2.36;84.55;101411.28;6265909;28;20221;-78
2021/12/11 13:54:20;;;;;;;3.20;2.90;;;;;;;2.42;84.07;101416.00;6265649;28;20193;-78
2021/12/11 13:57:27;;;;;;;3.13;2.97;;;;;;;2.43;84.26;101417.66;6266073;28;20188;-76
2021/12/11 14:00:37;;;;;;;3.40;3.20;;;;;;;2.53;83.98;101412.88;6265898;28;20208;-78
2021/12/11 14:03:47;;;;;;;6.17;3.03;;;;;;;2.60;83.04;101419.31;6266204;28;20256;-79
2021/12/11 14:07:03;;;;;;;3.80;3.47;;;;;;;2.48;82.90;101405.28;6265314;28;20223;-78
2021/12/11 14:10:20;;;;;;;3.93;3.60;;;;;;;2.51;82.86;101420.34;6265845;28;20203;-78
2021/12/11 14:13:25;;;;;;;4.87;4.43;;;;;;;2.40;82.09;101428.84;6264926;28;20383;-77
2021/12/11 14:16:30;;;;;;;5.17;4.70;;;;;;;2.50;82.51;101440.34;6266071;28;20219;-77
2021/12/11 14:19:35;;;;;;;4.53;4.13;;;;;;;2.33;83.38;101439.56;6264314;28;20527;-79
2021/12/11 14:22:39;;;;;;;4.40;4.13;;;;;;;2.29;83.02;101439.06;6264981;28;20220;-79
2021/12/11 14:25:45;;;;;;;6.97;3.97;;;;;;;2.37;83.52;101450.91;6264265;28;20290;-79
2021/12/11 14:28:50;;;;;;;4.50;4.20;;;;;;;2.40;82.76;101455.97;6263987;28;20342;-79
2021/12/11 14:31:56;;;;;;;6.00;5.33;;;;;;;2.37;82.83;101445.50;6264285;28;20188;-79
2021/12/11 14:35:01;;;;;;;4.90;4.50;;;;;;;2.36;82.59;101454.63;6264806;28;20391;-79
2021/12/11 14:38:08;;;;;;;4.90;4.43;;;;;;;2.38;82.20;101436.34;6264774;28;20556;-79
2021/12/11 14:41:15;;;;;;;4.97;4.57;;;;;;;2.32;82.44;101449.56;6266955;28;20210;-80
2021/12/11 14:44:24;;;;;;;5.63;4.80;;;;;;;2.32;81.56;101453.31;6265016;28;20188;-79
2021/12/11 14:47:30;;;;;;;5.70;4.77;;;;;;;2.27;81.35;101454.66;6264870;28;20481;-78
2021/12/11 14:50:37;;;;;;;5.60;5.10;;;;;;;2.41;81.79;101463.94;6265697;28;20196;-78
2021/12/11 14:53:43;;;;;;;5.60;5.20;;;;;;;2.40;81.60;101466.81;6265841;28;20192;-77
2021/12/11 14:56:51;;;;;;;7.37;5.20;;;;;;;2.32;81.27;101472.28;6265198;28;20187;-79
2021/12/11 14:59:59;;;;;;;6.53;5.53;;;;;;;2.22;81.37;101467.88;6264273;28;20573;-79
2021/12/11 15:03:06;;;;;;;6.70;5.27;;;;;;;2.40;81.05;101467.66;6265800;28;20187;-78
2021/12/11 15:06:11;;;;;;;7.60;5.67;;;;;;;2.46;80.19;101482.38;6264295;28;20533;-79
2021/12/11 15:09:16;;;;;;;7.27;5.90;;;;;;;2.34;80.80;101462.09;6265401;28;20317;-78
2021/12/11 15:12:21;;;;;;;12.13;7.80;;;;;;;2.32;81.38;101492.06;6264481;28;20254;-78
2021/12/11 15:15:27;;;;;;;14.33;8.40;;;;;;;2.25;82.12;101486.50;6264536;28;20223;-78
2021/12/11 15:18:33;;;;;;;16.70;10.97;;;;;;;2.35;81.67;101490.88;6265127;28;20219;-78
2021/12/11 15:21:40;;;;;;;24.33;16.10;;;;;;;2.38;82.16;101490.53;6263387;28;20234;-79
2021/12/11 15:24:44;;;;;;;29.77;16.83;;;;;;;2.36;81.86;101501.56;6265005;28;20457;-78
2021/12/11 15:27:50;;;;;;;28.17;16.90;;;;;;;2.47;81.13;101497.63;6263840;28;20274;-78
2021/12/11 15:30:59;;;;;;;24.97;14.43;;;;;;;2.44;81.25;101506.97;6264022;28;20255;-79
2021/12/11 15:34:17;;;;;;;22.93;13.90;;;;;;;2.45;80.60;101513.22;6263966;28;20188;-78
2021/12/11 15:37:23;;;;;;;21.37;13.37;;;;;;;2.48;80.57;101518.28;6264528;28;20228;-79
2021/12/11 15:40:31;;;;;;;14.77;10.93;;;;;;;2.43;80.50;101523.38;6265961;28;20244;-78
2021/12/11 15:43:36;;;;;;;13.70;7.50;;;;;;;2.42;80.92;101519.00;6265934;28;20188;-78
2021/12/11 15:46:42;;;;;;;12.13;7.57;;;;;;;2.51;80.58;101534.22;6264148;28;20420;-79
2021/12/11 15:49:48;;;;;;;12.60;7.97;;;;;;;2.50;80.07;101527.09;6264872;28;20544;-78
2021/12/11 15:52:52;;;;;;;10.97;7.87;;;;;;;2.42;80.88;101535.28;6264587;28;20223;-79
2021/12/11 15:56:04;;;;;;;10.93;7.63;;;;;;;2.45;80.81;101529.47;6263305;28;20196;-79
2021/12/11 15:59:09;;;;;;;11.80;8.10;;;;;;;2.36;80.49;101544.06;6263571;28;20524;-79
2021/12/11 16:02:14;;;;;;;9.93;7.17;;;;;;;2.34;80.04;101544.25;6263798;28;20241;-79
2021/12/11 16:05:21;;;;;;;12.53;7.50;;;;;;;2.18;80.93;101539.72;6262844;28;20445;-78
2021/12/11 16:08:26;;;;;;;10.30;7.40;;;;;;;2.34;80.45;101554.25;6263979;28;20241;-79
2021/12/11 16:11:33;;;;;;;10.63;7.53;;;;;;;2.36;80.53;101557.63;6263494;28;20223;-79
2021/12/11 16:14:39;;;;;;;11.23;7.50;;;;;;;2.44;80.09;101560.31;6264062;28;20495;-79
2021/12/11 16:17:44;;;;;;;13.80;8.67;;;;;;;2.43;80.48;101566.75;6279550;28;20202;-79
2021/12/11 16:20:52;;;;;;;10.33;7.83;;;;;;;2.43;80.26;101569.47;6264257;28;20272;-79
2021/12/11 16:24:00;;;;;;;13.77;8.03;;;;;;;2.40;80.30;101567.09;6263218;28;20387;-78
2021/12/11 16:27:06;;;;;;;12.90;8.47;;;;;;;2.40;79.87;101569.81;6268829;28;20262;-79
2021/12/11 16:30:16;;;;;;;16.13;9.23;;;;;;;2.49;79.46;101568.78;6268341;28;20195;-78
2021/12/11 16:33:21;;;;;;;14.37;9.17;;;;;;;2.42;80.08;101567.78;6283721;28;20203;-78
2021/12/11 16:36:27;;;;;;;15.83;9.17;;;;;;;2.29;80.09;101569.16;6267816;28;20204;-78
2021/12/11 16:39:32;;;;;;;13.47;8.43;;;;;;;2.40;79.44;101567.09;6267191;28;20231;-79
2021/12/11 16:43:02;;;;;;;14.70;8.37;;;;;;;2.46;79.10;101569.13;6267578;28;20212;-78
2021/12/11 16:46:07;;;;;;;14.37;8.00;;;;;;;2.32;79.55;101574.22;6268180;28;20188;-78
2021/12/11 16:49:13;;;;;;;12.97;8.30;;;;;;;2.29;79.84;101574.56;6267270;28;20187;-79
2021/12/11 16:52:21;;;;;;;12.17;7.33;;;;;;;2.42;79.22;101581.34;6268254;28;20230;-78
2021/12/11 16:55:28;;;;;;;11.70;7.97;;;;;;;2.42;79.04;101579.47;6268065;28;20263;-78
2021/12/11 16:58:35;;;;;;;12.43;7.63;;;;;;;2.30;79.52;101587.13;6266725;28;20465;-78
2021/12/11 17:01:41;;;;;;;8.80;6.83;;;;;;;2.27;79.77;101582.03;6267374;28;20268;-78
2021/12/11 17:04:47;;;;;;;9.97;7.10;;;;;;;2.37;79.38;101591.88;6266922;28;20258;-78
2021/12/11 17:07:52;;;;;;;10.10;7.30;;;;;;;2.43;78.98;101596.56;6266841;28;20216;-78
2021/12/11 17:10:59;;;;;;;14.07;8.03;;;;;;;2.38;78.81;101588.97;6266889;28;20191;-78
2021/12/11 17:14:04;;;;;;;11.73;7.53;;;;;;;2.37;78.55;101600.81;6266152;28;20386;-78
2021/12/11 17:17:09;;;;;;;14.27;7.60;;;;;;;2.36;78.26;101573.91;6265906;28;20192;-78
2021/12/11 17:20:17;;;;;;;16.13;8.70;;;;;;;2.32;78.50;101610.50;6267271;28;20185;-78
2021/12/11 17:23:22;;;;;;;13.93;7.93;;;;;;;2.24;79.09;101606.75;6267162;28;20195;-78
2021/12/11 17:26:30;;;;;;;10.90;8.00;;;;;;;2.21;79.15;101609.78;6266010;28;20226;-78
2021/12/11 17:29:35;;;;;;;14.53;8.47;;;;;;;2.30;78.63;101608.78;6267016;28;20256;-78
2021/12/11 17:32:40;;;;;;;14.10;8.70;;;;;;;2.37;78.45;101624.38;6266611;28;20264;-78
2021/12/11 17:35:44;;;;;;;13.10;8.47;;;;;;;2.25;78.75;101627.44;6266346;28;20188;-78
2021/12/11 17:38:50;;;;;;;14.20;8.53;;;;;;;2.34;78.01;101630.16;6266051;28;20285;-78
2021/12/11 17:42:00;;;;;;;12.80;8.63;;;;;;;2.29;78.59;101639.59;6266251;28;20223;-78
2021/12/11 17:45:07;;;;;;;24.20;8.40;;;;;;;2.37;78.29;101651.50;6265649;28;20515;-78
2021/12/11 17:48:15;;;;;;;15.13;8.80;;;;;;;2.30;77.79;101652.16;6266196;28;20209;-79
2021/12/11 17:51:20;;;;;;;14.73;8.43;;;;;;;2.35;77.68;101658.91;6265753;28;20384;-79
2021/12/11 17:54:26;;;;;;;15.23;8.80;;;;;;;2.43;77.58;101656.22;6265214;28;20376;-79
2021/12/11 17:57:31;;;;;;;16.30;9.00;;;;;;;2.17;78.75;101662.66;6266306;28;20208;-79
2021/12/11 18:00:58;;;;;;;16.00;9.47;;;;;;;2.23;78.20;101655.72;6265529;28;20210;-78
2021/12/11 18:04:10;;;;;;;21.63;10.33;;;;;;;2.05;78.63;101647.75;6266276;28;20379;-78
2021/12/11 18:07:19;;;;;;;18.20;9.63;;;;;;;2.16;78.41;101666.38;6265578;28;20200;-78
2021/12/11 18:10:30;;;;;;;19.10;9.63;;;;;;;2.11;78.95;101663.31;6265569;28;20264;-78
2021/12/11 18:13:40;;;;;;;19.33;9.20;;;;;;;2.09;79.14;101676.19;6265898;28;20190;-78
2021/12/11 18:16:51;;;;;;;18.63;10.00;;;;;;;2.06;79.03;101671.09;6266553;28;20192;-77
2021/12/11 18:20:00;;;;;;;18.33;9.53;;;;;;;2.01;79.11;101659.91;6265762;28;20186;-77
2021/12/11 18:23:05;;;;;;;16.50;9.83;;;;;;;2.13;78.89;101672.16;6264372;28;20549;-77
2021/12/11 18:26:16;;;;;;;18.20;9.90;;;;;;;2.12;78.72;101680.41;6265295;28;20184;-77
2021/12/11 18:29:24;;;;;;;17.67;10.33;;;;;;;2.20;78.43;101689.41;6265057;28;20213;-77
2021/12/11 18:32:31;;;;;;;18.93;10.03;;;;;;;2.25;78.21;101687.06;6263504;28;20416;-77
2021/12/11 18:35:43;;;;;;;20.27;10.37;;;;;;;2.20;78.03;101689.41;6264451;28;20226;-77
2021/12/11 18:38:48;;;;;;;19.87;11.20;;;;;;;2.22;78.05;101687.38;6263778;28;20237;-77
2021/12/11 18:41:52;;;;;;;18.80;9.97;;;;;;;2.14;77.66;101679.25;6263916;28;20284;-77
2021/12/11 18:45:01;;;;;;;23.30;10.70;;;;;;;2.05;78.90;101696.50;6264070;28;20213;-78
2021/12/11 18:48:11;;;;;;;18.83;10.77;;;;;;;2.11;78.38;101689.59;6263900;28;20267;-77
2021/12/11 18:51:22;;;;;;;20.97;11.00;;;;;;;2.04;78.31;101700.22;6263459;28;20188;-77
2021/12/11 18:54:31;;;;;;;21.20;12.43;;;;;;;1.96;78.23;101697.50;6264058;28;20186;-78
2021/12/11 18:57:39;;;;;;;22.60;12.63;;;;;;;1.81;78.32;101699.13;6264728;28;20194;-77
2021/12/11 19:00:50;;;;;;;23.77;12.10;;;;;;;1.67;78.59;101707.91;6263997;28;20464;-78
2021/12/11 19:04:01;;;;;;;22.90;11.23;;;;;;;1.53;79.49;101711.22;6264502;28;20216;-78
2021/12/11 19:07:08;;;;;;;18.53;10.77;;;;;;;1.49;79.36;101715.28;6262648;28;20479;-78
2021/12/11 19:10:13;;;;;;;21.30;10.90;;;;;;;1.31;79.06;101711.81;6263507;28;20188;-76
2021/12/11 19:13:18;;;;;;;20.20;11.10;;;;;;;1.21;78.87;101705.66;6263529;28;20275;-76
2021/12/11 19:16:25;;;;;;;17.73;10.17;;;;;;;1.20;78.08;101720.19;6264380;28;20208;-78
2021/12/11 19:19:30;;;;;;;19.33;11.10;;;;;;;1.04;77.47;101721.78;6263083;28;20232;-79
2021/12/11 19:22:34;;;;;;;22.10;10.70;;;;;;;0.94;77.35;101720.19;6262862;28;20209;-77
2021/12/11 19:25:38;;;;;;;20.47;11.27;;;;;;;0.97;77.62;101726.16;6261977;28;20468;-77
2021/12/11 19:28:42;;;;;;;21.23;11.27;;;;;;;0.90;77.14;101735.06;6263199;28;20255;-77
2021/12/11 19:31:52;;;;;;;18.87;10.63;;;;;;;0.74;77.40;101721.41;6263857;28;20236;-79
2021/12/11 19:34:59;;;;;;;18.80;10.13;;;;;;;0.81;76.99;101739.56;6263655;28;20590;-79
2021/12/11 19:38:05;;;;;;;21.93;10.80;;;;;;;0.71;77.83;101746.91;6263682;28;20247;-78
2021/12/11 19:41:11;;;;;;;18.90;10.77;;;;;;;0.64;77.27;101739.59;6264801;28;20263;-78
2021/12/11 19:44:16;;;;;;;22.13;11.33;;;;;;;0.62;77.13;101752.41;6265142;28;20221;-77
2021/12/11 19:47:25;;;;;;;19.77;10.90;;;;;;;0.61;77.10;101762.38;6265439;28;20195;-79
2021/12/11 19:50:29;;;;;;;20.30;10.50;;;;;;;0.54;77.37;101761.31;6263578;28;20335;-82
2021/12/11 19:53:34;;;;;;;21.00;11.50;;;;;;;0.66;77.81;101765.47;6268077;28;20502;-81
2021/12/11 19:56:51;;;;;;;25.03;11.37;;;;;;;0.57;77.86;101760.16;6266134;28;20187;-78
2021/12/11 19:59:59;;;;;;;22.23;12.07;;;;;;;0.61;77.39;101762.38;6268955;28;20223;-77
2021/12/11 20:03:08;;;;;;;22.87;11.57;;;;;;;0.47;78.26;101757.50;6272344;28;20220;-78
2021/12/11 20:06:15;;;;;;;19.53;10.53;;;;;;;0.51;77.21;101766.16;6270615;28;20495;-80
2021/12/11 20:09:24;;;;;;;23.83;11.67;;;;;;;0.37;78.69;101770.25;6268311;28;20195;-79
2021/12/11 20:12:32;;;;;;;22.87;12.07;;;;;;;0.39;77.51;101773.69;6268433;28;20189;-80
2021/12/11 20:15:42;;;;;;;25.37;12.10;;;;;;;0.26;78.75;101778.59;6268725;28;20267;-80
2021/12/11 20:18:53;;;;;;;28.70;13.33;;;;;;;0.26;79.06;101784.84;6269008;28;20195;-81
2021/12/11 20:22:00;;;;;;;25.33;13.17;;;;;;;0.23;79.36;101784.31;6267651;28;20195;-80
2021/12/11 20:25:06;;;;;;;30.33;13.07;;;;;;;0.21;79.01;101779.03;6268902;28;20443;-80
2021/12/11 20:28:13;;;;;;;27.83;13.30;;;;;;;0.31;79.39;101776.28;6268274;28;20188;-81
2021/12/11 20:31:23;;;;;;;23.87;13.17;;;;;;;0.09;78.94;101734.34;6268501;28;20189;-81
2021/12/11 20:34:32;;;;;;;23.60;12.77;;;;;;;0.23;78.77;101784.31;6268738;28;20227;-82
2021/12/11 20:37:37;;;;;;;22.07;12.23;;;;;;;0.17;79.03;101784.91;6268212;28;20289;-81
2021/12/11 20:40:44;;;;;;;24.70;12.47;;;;;;;0.10;79.51;101783.81;6268402;28;20188;-82
2021/12/11 20:43:50;;;;;;;27.67;13.97;;;;;;;0.13;79.10;101787.09;6268061;28;20262;-79
2021/12/11 20:46:54;;;;;;;28.03;12.83;;;;;;;0.14;79.83;101785.22;6267480;28;20250;-79
2021/12/11 20:50:03;;;;;;;29.13;13.20;;;;;;;0.04;79.57;101797.94;6267863;28;20192;-79
2021/12/11 20:53:09;;;;;;;26.80;12.80;;;;;;;-0.01;79.00;101802.94;6267438;28;20478;-78
2021/12/11 20:56:15;;;;;;;27.53;13.27;;;;;;;0.01;79.42;101790.13;6268843;28;20188;-78
2021/12/11 20:59:19;;;;;;;30.80;13.07;;;;;;;-0.02;78.89;101801.25;6269050;28;20187;-78
2021/12/11 21:02:28;;;;;;;28.00;13.87;;;;;;;0.01;79.34;101800.94;6267005;28;20188;-80
2021/12/11 21:05:40;;;;;;;30.43;12.87;;;;;;;0.07;78.76;101797.63;6266970;28;20219;-78
2021/12/11 21:08:48;;;;;;;27.30;13.37;;;;;;;0.01;79.47;101806.31;6267262;28;20211;-80
2021/12/11 21:11:56;;;;;;;27.27;13.03;;;;;;;-0.06;79.81;101810.63;6261672;28;64542;-77
2021/12/11 21:15:07;;;;;;;27.20;12.87;;;;;;;-0.01;79.09;101817.28;6267902;28;20192;-79
2021/12/11 21:18:18;;;;;;;28.87;12.90;;;;;;;-0.04;79.46;101814.03;6268870;28;20196;-78
2021/12/11 21:21:29;;;;;;;34.20;13.87;;;;;;;-0.08;79.17;101823.44;6267883;28;20245;-78
2021/12/11 21:24:38;;;;;;;29.47;13.40;;;;;;;-0.12;80.21;101822.06;6267619;28;20217;-78
2021/12/11 21:27:45;;;;;;;32.53;13.83;;;;;;;0.02;79.70;101835.03;6266964;28;20254;-78
2021/12/11 21:30:54;;;;;;;28.77;13.73;;;;;;;-0.05;79.75;101828.56;6267967;28;20188;-79
2021/12/11 21:34:01;;;;;;;35.17;13.80;;;;;;;-0.11;79.34;101839.94;6268208;28;20461;-80
2021/12/11 21:37:21;;;;;;;29.17;13.47;;;;;;;-0.15;79.58;101831.31;6266743;28;20537;-78
2021/12/11 21:40:34;;;;;;;30.30;14.20;;;;;;;-0.17;79.41;101837.84;6266314;28;20187;-78
2021/12/11 21:43:41;;;;;;;31.80;14.07;;;;;;;-0.20;79.46;101837.13;6266063;28;20501;-78
2021/12/11 21:46:50;;;;;;;33.37;13.20;;;;;;;-0.23;79.87;101836.59;6290148;28;20247;-78
2021/12/11 21:50:02;;;;;;;35.77;14.23;;;;;;;-0.18;79.81;101837.00;6291804;28;20453;-78
2021/12/11 21:53:08;;;;;;;25.87;12.17;;;;;;;-0.22;79.01;101847.22;6290437;28;20247;-78
2021/12/11 21:56:14;;;;;;;22.30;12.67;;;;;;;-0.11;78.73;101845.34;6291644;28;20189;-78
2021/12/11 21:59:24;;;;;;;27.80;13.07;;;;;;;-0.15;79.32;101838.56;6292117;28;20186;-78
2021/12/11 22:02:37;;;;;;;27.03;12.80;;;;;;;-0.20;78.80;101858.72;6289517;28;20204;-78
2021/12/11 22:05:46;;;;;;;33.23;14.87;;;;;;;-0.09;79.67;101848.72;6290442;28;20540;-78
2021/12/11 22:08:55;;;;;;;33.17;15.40;;;;;;;0.06;78.89;101858.03;6290266;28;20216;-78
2021/12/11 22:12:04;;;;;;;37.90;16.00;;;;;;;0.08;78.32;101856.06;6290129;28;20187;-78
2021/12/11 22:15:14;;;;;;;40.13;15.57;;;;;;;0.11;78.26;101850.38;6290656;28;20195;-78
2021/12/11 22:18:19;;;;;;;34.20;15.80;;;;;;;0.07;79.21;101859.75;6291201;28;20209;-78
2021/12/11 22:21:26;;;;;;;35.30;15.37;;;;;;;0.07;79.32;101867.84;6289683;28;20194;-78
2021/12/11 22:24:37;;;;;;;32.50;14.73;;;;;;;0.23;78.57;101865.34;6289331;28;20571;-80
2021/12/11 22:27:41;;;;;;;33.53;14.43;;;;;;;0.28;78.51;101868.44;6290588;28;20188;-78
2021/12/11 22:30:49;;;;;;;29.07;13.50;;;;;;;0.15;79.19;101876.91;6290431;28;20190;-78
2021/12/11 22:33:55;;;;;;;33.20;14.40;;;;;;;0.14;79.42;101874.34;6290922;28;20191;-79
2021/12/11 22:37:02;;;;;;;24.03;12.53;;;;;;;0.24;79.31;101873.28;6291042;28;20462;-78
2021/12/11 22:40:13;;;;;;;28.30;12.83;;;;;;;0.31;79.39;101868.16;6315448;28;20192;-78
2021/12/11 22:43:22;;;;;;;24.07;12.83;;;;;;;0.39;78.65;101873.66;6313776;28;20388;-78
2021/12/11 22:46:30;;;;;;;26.10;13.13;;;;;;;0.40;78.39;101876.19;6314008;28;20213;-78
2021/12/11 22:49:34;;;;;;;28.80;13.83;;;;;;;0.41;78.40;101877.03;6314508;28;20198;-78
2021/12/11 22:52:38;;;;;;;28.50;12.57;;;;;;;0.47;77.74;101868.31;6314398;28;20221;-78
2021/12/11 22:55:47;;;;;;;27.93;12.90;;;;;;;0.59;77.58;101877.91;6314047;28;20187;-78
2021/12/11 22:58:54;;;;;;;28.87;13.27;;;;;;;0.59;78.13;101871.66;6314743;28;20187;-78
2021/12/11 23:02:02;;;;;;;24.27;13.20;;;;;;;0.65;77.40;101871.06;6313355;28;20186;-78
2021/12/11 23:05:11;;;;;;;26.17;12.10;;;;;;;0.67;77.60;101874.44;6312883;28;20405;-78
2021/12/11 23:08:19;;;;;;;23.80;11.23;;;;;;;0.83;77.21;101875.44;6313143;28;20345;-78
2021/12/11 23:11:30;;;;;;;21.00;11.67;;;;;;;0.95;76.50;101874.22;6314727;28;20186;-78
2021/12/11 23:14:38;;;;;;;19.43;10.43;;;;;;;1.00;76.26;101882.72;6295473;28;20206;-78
2021/12/11 23:17:49;;;;;;;20.20;10.83;;;;;;;0.90;76.65;101887.34;6314611;28;20187;-78
2021/12/11 23:21:00;;;;;;;18.83;10.83;;;;;;;1.00;76.39;101893.53;6313749;28;20190;-78
2021/12/11 23:24:09;;;;;;;20.00;9.97;;;;;;;1.08;75.52;101896.28;6314229;28;20184;-78
2021/12/11 23:27:22;;;;;;;17.87;9.77;;;;;;;1.07;75.72;101889.19;6313952;28;20194;-78
2021/12/11 23:30:30;;;;;;;20.83;11.23;;;;;;;1.05;75.80;101902.03;6314412;28;20305;-78
2021/12/11 23:33:38;;;;;;;22.03;10.83;;;;;;;1.12;75.57;101891.41;6314035;28;20193;-78
2021/12/11 23:36:47;;;;;;;21.43;10.60;;;;;;;1.10;75.88;101889.88;6314246;28;20454;-78
2021/12/11 23:39:59;;;;;;;18.40;10.23;;;;;;;1.22;75.30;101891.31;6314098;28;20284;-78
2021/12/11 23:43:09;;;;;;;17.07;9.63;;;;;;;1.15;75.65;101895.66;6314089;28;20187;-78
2021/12/11 23:46:16;;;;;;;19.20;10.23;;;;;;;1.12;75.92;101891.41;6314356;28;20237;-78
2021/12/11 23:49:21;;;;;;;23.27;11.30;;;;;;;1.00;76.42;101888.13;6314398;28;20210;-78
2021/12/11 23:52:32;;;;;;;19.03;10.20;;;;;;;1.07;75.47;101882.94;6314673;28;20190;-78
2021/12/11 23:55:40;;;;;;;21.20;10.23;;;;;;;1.10;75.86;101892.59;6314272;28;20190;-78
2021/12/11 23:58:49;;;;;;;23.67;11.27;;;;;;;1.22;76.13;101902.16;6314250;28;20185;-78
